Lords Valley, Pennsylvania
Current Conditions -  °F | °C
As of 4:53 PM on Saturday 25 Oct 2014 (Local Time) from KMPO Reporting Station
Clear Clear  
Wind Chill: 60°   Ceiling: Unl
Heat Index: 60°   Visibility: 10mi
Dew Point: 41°   Wind: 12mph
Humidity: 49%   Direction: 250°WSW
Pressure: 29.69"   Gusts: 22mph
Location:  41.4849°N, 75.2172°W
Report Text: KMPO 252053Z AUTO 25010G19KT 10SM CLR 16/05 A2969 RMK AO2 SLP053 T01560050 56023
Loading
Personal Weather Stations






























Interactive Weather Map
Tropical Storm Tracking
New forecast layout! Learn more

10-Day Weather Forecast

Advertisements
Track Severe Weather on mobile